Terminal Aerodrome Forecast
Issued by NWS

Home | Current Version | Previous Version | Text Only | Print | Product List | Glossary On
Versions: 1 2 3 4 5 6 7 8 9 10 11 12 13 14 15 16
613
FTUS43 KMPX 102348
TAFRNH
TAF
KRNH 102348Z 1100/1124 12005KT 3SM -SN BKN015 OVC025
     FM110200 11007KT 1 1/2SM -SN BKN015 OVC025
     FM110700 08010KT 3/4SM -SN BKN008 OVC015
     FM111500 09009KT 2SM -SN SCT007 OVC015
     FM112100 31005KT 4SM -SN BKN015 OVC030=

USA.gov is the U.S. government's official web portal to all federal, state and local government web resources and services.